createdAt,value
2023-04-26T00:01:44.267Z,9.10
2023-04-26T00:04:13.483Z,9.10
2023-04-26T00:06:41.669Z,9.10
2023-04-26T00:09:09.713Z,9.10
2023-04-26T00:11:37.465Z,9.00
2023-04-26T00:14:05.256Z,9.00
2023-04-26T00:16:33.027Z,9.00
2023-04-26T00:19:01.257Z,9.00
2023-04-26T00:21:30.368Z,9.00
2023-04-26T00:23:58.534Z,9.00
2023-04-26T00:26:26.368Z,8.80
2023-04-26T00:28:54.395Z,8.80
2023-04-26T00:31:22.364Z,8.70
2023-04-26T00:33:50.304Z,8.60
2023-04-26T00:36:19.418Z,8.60
2023-04-26T00:38:48.548Z,8.60
2023-04-26T00:41:16.481Z,8.60
2023-04-26T00:43:44.463Z,8.60
2023-04-26T00:46:12.469Z,8.50
2023-04-26T00:48:40.433Z,8.30
2023-04-26T00:51:08.319Z,8.30
2023-04-26T00:53:36.422Z,8.30
2023-04-26T00:56:07.794Z,8.20
2023-04-26T00:58:35.652Z,8.20
2023-04-26T01:01:03.799Z,8.20
2023-04-26T01:03:31.887Z,8.10
2023-04-26T01:05:59.825Z,8.00
2023-04-26T01:08:27.611Z,8.00
2023-04-26T01:10:55.486Z,8.00
2023-04-26T01:13:24.603Z,8.00
2023-04-26T01:15:52.672Z,8.00
2023-04-26T01:18:20.446Z,8.00
2023-04-26T01:20:48.449Z,8.00
2023-04-26T01:23:17.520Z,8.00
2023-04-26T01:25:45.384Z,8.00
2023-04-26T01:28:13.077Z,8.10
2023-04-26T01:30:40.949Z,8.00
2023-04-26T01:33:08.661Z,7.90
2023-04-26T01:35:36.467Z,7.80
2023-04-26T01:38:04.374Z,7.70
2023-04-26T01:40:33.432Z,7.60
2023-04-26T01:43:03.155Z,7.60
2023-04-26T01:45:31.515Z,7.70
2023-04-26T01:47:59.322Z,7.70
2023-04-26T01:50:27.217Z,7.70
2023-04-26T01:52:54.966Z,7.70
2023-04-26T01:55:22.671Z,7.70
2023-04-26T01:57:51.745Z,7.60
2023-04-26T02:00:19.781Z,7.60
2023-04-26T02:02:47.515Z,7.60
2023-04-26T02:05:15.606Z,7.60
2023-04-26T02:07:43.315Z,7.50
2023-04-26T02:10:11.204Z,7.50
2023-04-26T02:12:38.881Z,7.50
2023-04-26T02:15:09.488Z,7.40
2023-04-26T02:17:37.686Z,7.40
2023-04-26T02:20:07.190Z,7.40
2023-04-26T02:22:34.896Z,7.40
2023-04-26T02:25:02.577Z,7.40
2023-04-26T02:27:30.765Z,7.40
2023-04-26T02:29:58.526Z,7.40
2023-04-26T02:32:27.675Z,7.50
2023-04-26T02:34:56.065Z,7.40
2023-04-26T02:37:23.771Z,7.40
2023-04-26T02:39:51.984Z,7.40
2023-04-26T02:42:19.793Z,7.40
2023-04-26T02:44:47.592Z,7.40
2023-04-26T02:47:15.356Z,7.40
2023-04-26T02:49:44.423Z,7.40
2023-04-26T02:52:12.174Z,7.50
2023-04-26T02:54:39.933Z,7.50
2023-04-26T02:57:08.235Z,7.50
2023-04-26T02:59:35.954Z,7.50
2023-04-26T03:02:03.713Z,7.50
2023-04-26T03:04:33.940Z,7.40
2023-04-26T03:07:02.996Z,7.40
2023-04-26T03:09:30.951Z,7.40
2023-04-26T03:11:58.983Z,7.40
2023-04-26T03:14:26.991Z,7.50
2023-04-26T03:16:55.023Z,7.40
2023-04-26T03:19:22.779Z,7.40
2023-04-26T03:21:50.560Z,7.40
2023-04-26T03:24:19.980Z,7.40
2023-04-26T03:26:47.847Z,7.30
2023-04-26T03:29:15.569Z,7.30
2023-04-26T03:31:43.306Z,7.40
2023-04-26T03:34:11.483Z,7.40
2023-04-26T03:36:39.875Z,7.40
2023-04-26T03:39:07.626Z,7.40
2023-04-26T03:41:39.338Z,7.40
2023-04-26T03:44:07.238Z,7.30
2023-04-26T03:46:34.988Z,7.30
2023-04-26T03:49:02.738Z,7.30
2023-04-26T03:51:31.383Z,7.30
2023-04-26T03:53:59.292Z,7.30
2023-04-26T03:56:26.997Z,7.30
2023-04-26T03:58:56.058Z,7.30
2023-04-26T04:01:23.824Z,7.30
2023-04-26T04:03:51.636Z,7.30
2023-04-26T04:06:19.574Z,7.30
2023-04-26T04:08:47.264Z,7.30
2023-04-26T04:11:16.337Z,7.30
2023-04-26T04:13:44.569Z,7.40
2023-04-26T04:16:13.693Z,7.40
2023-04-26T04:18:41.559Z,7.30
2023-04-26T04:21:09.241Z,7.30
2023-04-26T04:23:36.978Z,7.30
2023-04-26T04:26:05.778Z,7.20
2023-04-26T04:28:34.281Z,7.20
2023-04-26T04:31:02.154Z,7.20
2023-04-26T04:33:31.220Z,7.20
2023-04-26T04:35:58.946Z,7.10
2023-04-26T04:38:26.770Z,7.10
2023-04-26T04:40:54.527Z,7.10
2023-04-26T04:43:23.469Z,7.10
2023-04-26T04:45:51.236Z,7.10
2023-04-26T04:48:20.496Z,7.10
2023-04-26T04:50:50.273Z,7.20
2023-04-26T04:53:18.072Z,7.20
2023-04-26T04:55:45.821Z,7.20
2023-04-26T04:58:14.800Z,7.30
2023-04-26T05:00:43.351Z,7.20
2023-04-26T05:03:11.347Z,7.20
2023-04-26T05:05:39.275Z,7.20
2023-04-26T05:08:08.904Z,7.10
2023-04-26T05:10:36.787Z,7.10
2023-04-26T05:13:05.633Z,7.10
2023-04-26T05:15:33.372Z,7.10
2023-04-26T05:18:01.302Z,7.20
2023-04-26T05:20:29.539Z,7.20
2023-04-26T05:22:57.222Z,7.20
2023-04-26T05:25:26.351Z,7.30
2023-04-26T05:27:54.042Z,7.30
2023-04-26T05:30:21.980Z,7.30
2023-04-26T05:32:50.407Z,7.30
2023-04-26T05:35:18.327Z,7.30
2023-04-26T05:37:46.158Z,7.30
2023-04-26T05:40:14.322Z,7.30
2023-04-26T05:42:43.418Z,7.40
2023-04-26T05:45:11.720Z,7.40
2023-04-26T05:47:39.583Z,7.40
2023-04-26T05:50:08.151Z,7.40
2023-04-26T05:52:35.895Z,7.50
2023-04-26T05:55:05.853Z,7.50
2023-04-26T05:57:34.517Z,7.50
2023-04-26T06:00:04.328Z,7.50
2023-04-26T06:02:32.290Z,7.50
2023-04-26T06:05:00.402Z,7.50
2023-04-26T06:07:28.231Z,7.60
2023-04-26T06:09:56.370Z,7.60
2023-04-26T06:12:24.208Z,7.70
2023-04-26T06:14:51.952Z,7.70
2023-04-26T06:17:21.291Z,7.70
2023-04-26T06:19:49.105Z,7.80
2023-04-26T06:22:16.829Z,7.80
2023-04-26T06:24:44.578Z,7.90
2023-04-26T06:27:12.307Z,8.00
2023-04-26T06:29:40.071Z,8.00
2023-04-26T06:32:07.800Z,8.00
2023-04-26T06:34:37.817Z,8.00
2023-04-26T06:37:05.729Z,8.00
2023-04-26T06:39:33.486Z,8.10
2023-04-26T06:42:01.225Z,8.10
2023-04-26T06:44:28.918Z,8.10
2023-04-26T06:46:56.735Z,8.00
2023-04-26T06:49:24.577Z,8.10
2023-04-26T06:51:53.824Z,8.10
2023-04-26T06:54:21.720Z,8.10
2023-04-26T06:56:49.443Z,8.20
2023-04-26T06:59:17.357Z,8.10
2023-04-26T07:01:45.137Z,8.00
2023-04-26T07:04:13.541Z,8.00
2023-04-26T07:06:41.890Z,7.90
2023-04-26T07:09:11.046Z,8.00
2023-04-26T07:11:38.981Z,8.10
2023-04-26T07:14:06.714Z,8.20
2023-04-26T07:16:34.535Z,8.50
2023-04-26T07:19:02.258Z,8.70
2023-04-26T07:21:29.974Z,9.00
2023-04-26T07:23:58.082Z,9.10
2023-04-26T07:26:27.507Z,9.20
2023-04-26T07:28:55.429Z,9.40
2023-04-26T07:31:23.181Z,9.60
2023-04-26T07:33:51.155Z,9.90
2023-04-26T07:36:19.213Z,10.20
2023-04-26T07:38:46.969Z,10.50
2023-04-26T07:41:16.348Z,10.60
2023-04-26T07:43:45.422Z,10.90
2023-04-26T07:46:13.239Z,11.20
2023-04-26T07:48:40.949Z,11.60
2023-04-26T07:51:09.317Z,11.80
2023-04-26T07:53:37.077Z,11.90
2023-04-26T07:56:05.505Z,12.10
2023-04-26T07:58:33.858Z,12.20
2023-04-26T08:01:03.954Z,12.50
2023-04-26T08:03:32.427Z,12.80
2023-04-26T08:06:00.774Z,13.00
2023-04-26T08:08:28.765Z,13.10
2023-04-26T08:10:56.689Z,13.10
2023-04-26T08:13:26.326Z,13.20
2023-04-26T08:15:55.637Z,13.30
2023-04-26T08:18:24.731Z,13.50
2023-04-26T08:20:55.094Z,13.40
2023-04-26T08:23:22.914Z,13.50
2023-04-26T08:25:50.776Z,13.40
2023-04-26T08:28:18.596Z,13.40
2023-04-26T08:30:46.449Z,13.40
2023-04-26T08:33:14.319Z,13.40
2023-04-26T08:35:43.430Z,13.40
2023-04-26T08:38:11.176Z,13.40
2023-04-26T08:40:39.174Z,13.50
2023-04-26T08:43:06.993Z,13.50
2023-04-26T08:45:35.994Z,13.60
2023-04-26T08:48:05.017Z,13.70
2023-04-26T08:50:34.424Z,13.90
2023-04-26T08:53:03.905Z,14.10
2023-04-26T08:55:31.926Z,14.30
2023-04-26T08:57:59.859Z,14.40
2023-04-26T09:00:28.123Z,14.40
2023-04-26T09:02:56.094Z,14.40
2023-04-26T09:05:26.650Z,14.50
2023-04-26T09:07:57.355Z,14.40
2023-04-26T09:10:26.801Z,14.30
2023-04-26T09:12:54.852Z,14.30
2023-04-26T09:15:23.165Z,14.30
2023-04-26T09:17:51.801Z,14.40
2023-04-26T09:20:21.563Z,14.40
2023-04-26T09:22:49.759Z,14.30
2023-04-26T09:25:18.427Z,14.30
2023-04-26T09:27:47.513Z,14.20
2023-04-26T09:30:17.455Z,14.10
2023-04-26T09:32:50.027Z,14.30
2023-04-26T09:35:28.453Z,14.40
2023-04-26T09:38:01.351Z,14.50
2023-04-26T09:40:34.558Z,14.60
2023-04-26T09:43:04.877Z,14.70
2023-04-26T09:45:33.386Z,14.70
2023-04-26T09:48:16.797Z,14.80
2023-04-26T09:50:46.553Z,14.70
2023-04-26T09:53:26.639Z,14.70
2023-04-26T09:55:54.855Z,14.70
2023-04-26T09:58:24.207Z,14.60
2023-04-26T10:00:52.597Z,14.50
2023-04-26T10:03:21.014Z,14.40
2023-04-26T10:05:49.023Z,14.30
2023-04-26T10:08:17.110Z,14.40
2023-04-26T10:10:45.898Z,14.40
2023-04-26T10:13:14.476Z,14.40
2023-04-26T10:15:43.836Z,14.30
2023-04-26T10:18:11.613Z,14.20
2023-04-26T10:20:41.458Z,14.00
2023-04-26T10:23:15.453Z,13.90
2023-04-26T10:25:44.296Z,13.70
2023-04-26T10:28:12.001Z,13.60
2023-04-26T10:30:54.657Z,13.50
2023-04-26T10:33:24.455Z,13.30
2023-04-26T10:36:02.439Z,13.20
2023-04-26T10:38:30.184Z,13.20
2023-04-26T10:41:17.895Z,13.20
2023-04-26T10:43:45.632Z,13.20
2023-04-26T10:46:28.205Z,13.20
2023-04-26T10:48:57.357Z,13.20
2023-04-26T10:51:25.155Z,13.30
2023-04-26T10:53:59.361Z,13.30
2023-04-26T10:56:44.817Z,13.30
2023-04-26T10:59:33.231Z,13.30
2023-04-26T11:02:01.474Z,13.50
2023-04-26T11:04:51.433Z,13.70
2023-04-26T11:07:36.949Z,13.90
2023-04-26T11:10:04.941Z,14.20
2023-04-26T11:12:34.629Z,14.40
2023-04-26T11:15:02.350Z,14.50
2023-04-26T11:17:30.109Z,14.50
2023-04-26T11:19:59.202Z,14.50
2023-04-26T11:22:26.990Z,14.50
2023-04-26T11:24:54.730Z,14.40
2023-04-26T11:27:28.589Z,14.40
2023-04-26T11:29:56.319Z,14.30
2023-04-26T11:32:24.748Z,14.30
2023-04-26T11:34:52.693Z,14.30
2023-04-26T11:37:21.952Z,14.30
2023-04-26T11:39:51.309Z,14.30
2023-04-26T11:42:19.020Z,14.40
2023-04-26T11:44:47.739Z,14.50
2023-04-26T11:47:15.775Z,14.50
2023-04-26T11:49:44.047Z,14.60
2023-04-26T11:52:11.885Z,14.80
2023-04-26T11:54:42.643Z,14.90
2023-04-26T11:57:19.827Z,15.00
2023-04-26T11:59:47.607Z,15.10
2023-04-26T12:02:15.494Z,15.30
2023-04-26T12:04:44.619Z,15.50
2023-04-26T12:07:12.726Z,15.50
2023-04-26T12:09:42.740Z,15.60
2023-04-26T12:12:10.457Z,15.50
2023-04-26T12:14:38.669Z,15.60
2023-04-26T12:17:07.455Z,15.70
2023-04-26T12:19:36.556Z,15.80
2023-04-26T12:22:04.742Z,16.00
2023-04-26T12:24:34.585Z,16.20
2023-04-26T12:27:04.213Z,16.30
2023-04-26T12:29:32.194Z,16.20
2023-04-26T12:32:00.439Z,16.30
2023-04-26T12:34:28.353Z,16.30
2023-04-26T12:36:56.213Z,16.40
2023-04-26T12:39:24.024Z,16.40
2023-04-26T12:41:51.770Z,16.40
2023-04-26T12:44:22.409Z,16.40
2023-04-26T12:46:51.265Z,16.30
2023-04-26T12:49:19.093Z,16.30
2023-04-26T12:51:47.190Z,16.30
2023-04-26T12:54:15.008Z,16.20
2023-04-26T12:56:45.055Z,16.20
2023-04-26T12:59:12.856Z,16.30
2023-04-26T13:01:42.026Z,16.40
2023-04-26T13:04:10.252Z,16.40
2023-04-26T13:06:38.129Z,16.30
2023-04-26T13:09:07.843Z,16.30
2023-04-26T13:11:35.740Z,16.30
2023-04-26T13:14:03.994Z,16.30
2023-04-26T13:16:31.802Z,16.40
2023-04-26T13:19:01.043Z,16.40
2023-04-26T13:21:28.861Z,16.40
2023-04-26T13:23:56.574Z,16.40
2023-04-26T13:26:27.026Z,16.30
2023-04-26T13:28:55.826Z,16.30
2023-04-26T13:31:23.619Z,16.40
2023-04-26T13:33:51.465Z,16.30
2023-04-26T13:36:20.669Z,16.30
2023-04-26T13:38:48.768Z,16.30
2023-04-26T13:41:16.558Z,16.20
2023-04-26T13:43:44.431Z,16.20
2023-04-26T13:46:12.247Z,16.20
2023-04-26T13:48:41.085Z,16.20
2023-04-26T13:51:08.864Z,16.20
2023-04-26T13:53:37.953Z,16.10
2023-04-26T13:56:06.120Z,16.20
2023-04-26T13:58:33.828Z,16.20
2023-04-26T14:01:01.651Z,16.30
2023-04-26T14:03:29.569Z,16.30
2023-04-26T14:05:57.523Z,16.10
2023-04-26T14:08:25.422Z,16.10
2023-04-26T14:10:54.550Z,16.20
2023-04-26T14:13:22.374Z,16.30
2023-04-26T14:15:50.254Z,16.30
2023-04-26T14:18:18.225Z,16.30
2023-04-26T14:20:46.640Z,16.10
2023-04-26T14:23:14.407Z,16.10
2023-04-26T14:25:42.363Z,15.80
2023-04-26T14:28:11.464Z,15.60
2023-04-26T14:30:39.246Z,15.60
2023-04-26T14:33:06.970Z,15.60
2023-04-26T14:35:34.753Z,15.50
2023-04-26T14:38:02.500Z,15.50
2023-04-26T14:40:30.255Z,15.50
2023-04-26T14:42:58.005Z,15.50
2023-04-26T14:45:36.855Z,15.50
2023-04-26T14:48:11.852Z,15.60
2023-04-26T14:50:39.598Z,15.60
2023-04-26T14:53:07.408Z,15.60
2023-04-26T14:55:35.603Z,15.60
2023-04-26T14:58:03.334Z,15.60
2023-04-26T15:00:32.514Z,15.50
2023-04-26T15:03:00.375Z,15.50
2023-04-26T15:05:28.199Z,15.60
2023-04-26T15:07:56.907Z,15.50
2023-04-26T15:10:24.634Z,15.50
2023-04-26T15:12:52.381Z,15.50
2023-04-26T15:15:20.094Z,15.50
2023-04-26T15:17:49.204Z,15.50
2023-04-26T15:20:17.139Z,15.40
2023-04-26T15:22:45.247Z,15.40
2023-04-26T15:25:13.087Z,15.40
2023-04-26T15:27:41.124Z,15.30
2023-04-26T15:30:09.713Z,15.20
2023-04-26T15:32:37.520Z,15.20
2023-04-26T15:35:07.476Z,15.10
2023-04-26T15:37:37.721Z,15.00
2023-04-26T15:40:10.456Z,15.10
2023-04-26T15:42:38.647Z,15.00
2023-04-26T15:45:06.964Z,15.00
2023-04-26T15:47:35.268Z,14.90
2023-04-26T15:50:04.589Z,14.90
2023-04-26T15:52:38.553Z,14.90
2023-04-26T15:55:08.090Z,15.00
2023-04-26T15:57:35.860Z,15.00
2023-04-26T16:00:05.869Z,15.00
2023-04-26T16:02:33.757Z,15.00
2023-04-26T16:05:01.737Z,14.90
2023-04-26T16:07:29.730Z,14.90
2023-04-26T16:09:58.834Z,14.90
2023-04-26T16:12:26.539Z,14.90
2023-04-26T16:14:54.267Z,14.80
2023-04-26T16:17:21.994Z,14.80
2023-04-26T16:19:49.741Z,14.70
2023-04-26T16:22:17.650Z,14.70
2023-04-26T16:24:45.706Z,14.70
2023-04-26T16:27:14.814Z,14.70
2023-04-26T16:29:42.493Z,14.70
2023-04-26T16:32:10.258Z,14.70
2023-04-26T16:34:37.996Z,14.60
2023-04-26T16:37:05.910Z,14.60
2023-04-26T16:39:34.527Z,14.60
2023-04-26T16:42:02.328Z,14.60
2023-04-26T16:44:31.560Z,14.60
2023-04-26T16:46:59.852Z,14.60
2023-04-26T16:49:27.579Z,14.60
2023-04-26T16:51:58.826Z,14.60
2023-04-26T16:54:27.065Z,14.60
2023-04-26T16:56:55.072Z,14.50
2023-04-26T16:59:23.166Z,14.40
2023-04-26T17:01:53.248Z,14.40
2023-04-26T17:04:21.362Z,14.40
2023-04-26T17:06:49.401Z,14.30
2023-04-26T17:09:18.576Z,14.30
2023-04-26T17:11:46.925Z,14.20
2023-04-26T17:14:14.648Z,14.20
2023-04-26T17:16:42.580Z,14.10
2023-04-26T17:19:11.778Z,14.20
2023-04-26T17:21:39.654Z,14.10
2023-04-26T17:24:07.901Z,14.00
2023-04-26T17:26:35.680Z,14.00
2023-04-26T17:29:03.461Z,14.00
2023-04-26T17:31:31.259Z,14.00
2023-04-26T17:33:59.000Z,14.00
2023-04-26T17:36:28.094Z,14.00
2023-04-26T17:38:55.822Z,14.00
2023-04-26T17:41:23.645Z,14.00
2023-04-26T17:43:51.384Z,14.00
2023-04-26T17:46:19.257Z,14.00
2023-04-26T17:48:47.063Z,14.00
2023-04-26T17:51:14.829Z,13.90
2023-04-26T17:53:43.969Z,13.90
2023-04-26T17:56:11.732Z,13.80
2023-04-26T17:58:39.529Z,13.80
2023-04-26T18:01:07.298Z,13.80
2023-04-26T18:03:35.817Z,13.80
2023-04-26T18:06:04.318Z,13.70
2023-04-26T18:08:32.067Z,13.70
2023-04-26T18:11:01.249Z,13.60
2023-04-26T18:13:28.962Z,13.60
2023-04-26T18:15:57.188Z,13.60
2023-04-26T18:18:27.262Z,13.50
2023-04-26T18:20:55.643Z,13.50
2023-04-26T18:23:23.471Z,13.50
2023-04-26T18:25:51.357Z,13.40
2023-04-26T18:28:20.454Z,13.40
2023-04-26T18:30:48.233Z,13.40
2023-04-26T18:33:16.321Z,13.30
2023-04-26T18:35:44.167Z,13.30
2023-04-26T18:38:11.857Z,13.30
2023-04-26T18:40:43.624Z,13.20
2023-04-26T18:43:11.462Z,13.10
2023-04-26T18:45:41.409Z,13.00
2023-04-26T18:48:09.485Z,12.90
2023-04-26T18:50:37.310Z,12.90
2023-04-26T18:53:05.012Z,12.80
2023-04-26T18:55:32.792Z,12.70
2023-04-26T18:58:00.570Z,12.70
2023-04-26T19:00:28.318Z,12.50
2023-04-26T19:02:58.017Z,12.50
2023-04-26T19:05:26.830Z,12.40
2023-04-26T19:07:54.704Z,12.40
2023-04-26T19:10:23.662Z,12.40
2023-04-26T19:12:51.448Z,12.40
2023-04-26T19:15:19.174Z,12.40
2023-04-26T19:17:47.346Z,12.30
2023-04-26T19:20:16.548Z,12.20
2023-04-26T19:22:45.289Z,12.20
2023-04-26T19:25:13.799Z,12.10
2023-04-26T19:27:41.720Z,12.00
2023-04-26T19:30:09.883Z,12.00
2023-04-26T19:32:37.683Z,11.90
2023-04-26T19:35:06.094Z,11.90
2023-04-26T19:37:35.268Z,11.90
2023-04-26T19:40:03.730Z,11.90
2023-04-26T19:42:31.468Z,11.80
2023-04-26T19:44:59.139Z,11.80
2023-04-26T19:47:26.902Z,11.70
2023-04-26T19:49:57.142Z,11.70
2023-04-26T19:52:24.901Z,11.70
2023-04-26T19:54:55.168Z,11.70
2023-04-26T19:57:23.009Z,11.70
2023-04-26T19:59:50.885Z,11.70
2023-04-26T20:02:18.759Z,11.80
2023-04-26T20:04:46.555Z,11.80
2023-04-26T20:07:14.267Z,11.70
2023-04-26T20:09:41.972Z,11.70
2023-04-26T20:12:11.069Z,11.70
2023-04-26T20:14:38.824Z,11.80
2023-04-26T20:17:06.822Z,11.80
2023-04-26T20:19:34.504Z,11.80
2023-04-26T20:22:02.206Z,11.90
2023-04-26T20:24:29.920Z,11.90
2023-04-26T20:26:57.728Z,11.90
2023-04-26T20:29:26.893Z,11.90
2023-04-26T20:31:54.750Z,12.00
2023-04-26T20:34:22.480Z,12.00
2023-04-26T20:36:50.148Z,11.90
2023-04-26T20:39:17.904Z,11.80
2023-04-26T20:41:45.694Z,11.80
2023-04-26T20:44:13.405Z,11.70
2023-04-26T20:46:42.551Z,11.70
2023-04-26T20:49:10.348Z,11.60
2023-04-26T20:51:38.040Z,11.60
2023-04-26T20:54:05.742Z,11.50
2023-04-26T20:56:33.426Z,11.60
2023-04-26T20:59:01.691Z,11.60
2023-04-26T21:01:29.514Z,11.50
2023-04-26T21:03:58.667Z,11.30
2023-04-26T21:06:27.100Z,11.30
2023-04-26T21:08:54.849Z,11.20
2023-04-26T21:11:22.575Z,11.20
2023-04-26T21:13:50.222Z,11.20
2023-04-26T21:16:18.040Z,11.20
2023-04-26T21:18:45.826Z,11.20
2023-04-26T21:21:14.900Z,11.10
2023-04-26T21:23:42.632Z,11.10
2023-04-26T21:26:10.432Z,11.10
2023-04-26T21:28:38.181Z,11.10
2023-04-26T21:31:06.565Z,11.00
2023-04-26T21:33:34.861Z,10.70
2023-04-26T21:36:02.605Z,10.60
2023-04-26T21:38:31.674Z,10.60
2023-04-26T21:40:59.357Z,10.70
2023-04-26T21:43:27.098Z,10.70
2023-04-26T21:45:57.888Z,10.80
2023-04-26T21:48:26.169Z,10.80
2023-04-26T21:50:53.944Z,10.80
2023-04-26T21:53:21.658Z,10.80
2023-04-26T21:55:53.501Z,10.80
2023-04-26T21:58:21.447Z,10.80
2023-04-26T22:00:49.654Z,10.80
2023-04-26T22:03:18.040Z,10.80
2023-04-26T22:05:45.978Z,10.80
2023-04-26T22:08:13.773Z,10.90
2023-04-26T22:10:41.813Z,10.90
2023-04-26T22:13:10.865Z,10.90
2023-04-26T22:15:38.613Z,10.70
2023-04-26T22:18:06.433Z,10.70
2023-04-26T22:20:34.163Z,10.60
2023-04-26T22:23:01.890Z,10.60
2023-04-26T22:25:29.584Z,10.60
2023-04-26T22:27:57.560Z,10.60
2023-04-26T22:30:26.698Z,10.70
2023-04-26T22:32:55.517Z,10.70
2023-04-26T22:35:23.548Z,10.70
2023-04-26T22:37:51.321Z,10.70
2023-04-26T22:40:19.252Z,10.60
2023-04-26T22:42:47.006Z,10.60
2023-04-26T22:45:14.731Z,10.70
2023-04-26T22:47:43.923Z,10.70
2023-04-26T22:50:12.266Z,10.70
2023-04-26T22:52:41.147Z,10.70
2023-04-26T22:55:09.432Z,10.70
2023-04-26T22:57:37.502Z,10.70
2023-04-26T23:00:05.750Z,10.60
2023-04-26T23:02:33.572Z,10.60
2023-04-26T23:05:03.972Z,10.70
2023-04-26T23:07:33.967Z,10.70
2023-04-26T23:10:01.792Z,10.60
2023-04-26T23:12:29.632Z,10.60
2023-04-26T23:14:57.867Z,10.60
2023-04-26T23:17:26.517Z,10.50
2023-04-26T23:19:54.327Z,10.50
2023-04-26T23:22:23.415Z,10.50
2023-04-26T23:24:51.537Z,10.60
2023-04-26T23:27:20.769Z,10.50
2023-04-26T23:29:50.557Z,10.60
2023-04-26T23:32:18.285Z,10.50
2023-04-26T23:34:46.530Z,10.50
2023-04-26T23:37:14.278Z,10.40
2023-04-26T23:39:43.342Z,10.40
2023-04-26T23:42:11.024Z,10.40
2023-04-26T23:44:38.743Z,10.30
2023-04-26T23:47:06.494Z,10.30
2023-04-26T23:49:34.199Z,10.30
2023-04-26T23:52:01.859Z,10.30
2023-04-26T23:54:29.582Z,10.30
2023-04-26T23:56:58.682Z,10.20
2023-04-26T23:59:26.391Z,10.20
